createdAt,value
2018-11-26T00:00:26.963Z,83.38
2018-11-26T00:02:54.402Z,83.46
2018-11-26T00:05:21.833Z,82.97
2018-11-26T00:07:49.259Z,83.49
2018-11-26T00:10:16.694Z,83.52
2018-11-26T00:12:44.119Z,83.63
2018-11-26T00:15:11.612Z,83.66
2018-11-26T00:17:39.063Z,83.55
2018-11-26T00:20:06.530Z,83.76
2018-11-26T00:22:34.631Z,84.39
2018-11-26T00:25:02.072Z,83.95
2018-11-26T00:27:29.496Z,84.36
2018-11-26T00:29:56.923Z,84.02
2018-11-26T00:32:24.355Z,83.15
2018-11-26T00:34:51.887Z,84.42
2018-11-26T00:37:20.166Z,83.47
2018-11-26T00:39:47.618Z,83.84
2018-11-26T00:42:15.057Z,83.74
2018-11-26T00:44:42.483Z,83.62
2018-11-26T00:47:10.186Z,83.43
2018-11-26T00:49:37.614Z,83.84
2018-11-26T00:52:05.119Z,83.11
2018-11-26T00:54:32.547Z,82.54
2018-11-26T00:56:59.974Z,83.02
2018-11-26T00:59:27.411Z,82.62
2018-11-26T01:01:54.845Z,82.51
2018-11-26T01:04:22.285Z,82.49
2018-11-26T01:06:49.969Z,81.55
2018-11-26T01:09:17.416Z,80.34
2018-11-26T01:11:44.846Z,80.17
2018-11-26T01:14:12.279Z,80.97
2018-11-26T01:16:39.705Z,79.97
2018-11-26T01:19:07.159Z,79.65
2018-11-26T01:21:34.679Z,79.39
2018-11-26T01:24:02.037Z,80.00
2018-11-26T01:26:29.454Z,80.10
2018-11-26T01:28:56.925Z,79.58
2018-11-26T01:31:24.304Z,79.65
2018-11-26T01:33:52.098Z,80.26
2018-11-26T01:36:19.526Z,79.50
2018-11-26T01:38:46.959Z,79.89
2018-11-26T01:41:14.406Z,79.60
2018-11-26T01:43:41.846Z,79.45
2018-11-26T01:46:09.280Z,79.76
2018-11-26T01:48:36.744Z,80.02
2018-11-26T01:51:04.198Z,79.25
2018-11-26T01:53:31.640Z,79.49
2018-11-26T01:55:59.114Z,80.26
2018-11-26T01:58:26.626Z,79.36
2018-11-26T02:00:54.054Z,79.98
2018-11-26T02:03:21.478Z,80.10
2018-11-26T02:05:48.922Z,80.50
2018-11-26T02:08:16.342Z,81.01
2018-11-26T02:10:43.776Z,80.74
2018-11-26T02:13:11.221Z,81.05
2018-11-26T02:15:39.569Z,81.18
2018-11-26T02:18:06.994Z,81.53
2018-11-26T02:20:34.433Z,81.37
2018-11-26T02:23:01.866Z,81.30
2018-11-26T02:25:29.339Z,81.11
2018-11-26T02:27:56.763Z,81.19
2018-11-26T02:30:24.195Z,80.47
2018-11-26T02:32:51.626Z,80.21
2018-11-26T02:35:19.066Z,79.76
2018-11-26T02:37:46.491Z,80.45
2018-11-26T02:40:13.941Z,80.44
2018-11-26T02:42:41.423Z,79.99
2018-11-26T02:45:08.864Z,80.12
2018-11-26T02:47:36.344Z,80.27
2018-11-26T02:50:03.773Z,80.35
2018-11-26T02:52:31.249Z,80.83
2018-11-26T02:54:58.687Z,80.52
2018-11-26T02:57:26.178Z,80.21
2018-11-26T02:59:53.620Z,79.68
2018-11-26T03:02:21.051Z,79.53
2018-11-26T03:04:48.546Z,79.62
2018-11-26T03:07:15.983Z,79.60
2018-11-26T03:09:43.410Z,78.47
2018-11-26T03:12:10.842Z,78.97
2018-11-26T03:14:38.271Z,78.91
2018-11-26T03:17:05.726Z,78.29
2018-11-26T03:19:33.318Z,79.12
2018-11-26T03:22:00.750Z,79.01
2018-11-26T03:24:28.177Z,79.89
2018-11-26T03:26:55.611Z,79.53
2018-11-26T03:29:23.044Z,79.06
2018-11-26T03:31:50.578Z,78.60
2018-11-26T03:34:18.015Z,78.97
2018-11-26T03:36:45.546Z,79.32
2018-11-26T03:39:12.909Z,79.36
2018-11-26T03:41:40.339Z,78.81
2018-11-26T03:44:07.762Z,77.98
2018-11-26T03:46:35.190Z,78.31
2018-11-26T03:49:02.619Z,77.95
2018-11-26T03:51:30.134Z,78.78
2018-11-26T03:53:57.553Z,79.00
2018-11-26T03:56:24.991Z,78.53
2018-11-26T03:58:52.427Z,78.72
2018-11-26T04:01:19.851Z,79.00
2018-11-26T04:03:47.329Z,79.73
2018-11-26T04:06:14.770Z,78.89
2018-11-26T04:08:42.195Z,79.50
2018-11-26T04:11:09.631Z,79.47
2018-11-26T04:13:37.058Z,79.28
2018-11-26T04:16:04.502Z,79.51
2018-11-26T04:18:31.966Z,79.22
2018-11-26T04:20:59.432Z,80.15
2018-11-26T04:23:26.854Z,78.96
2018-11-26T04:25:54.330Z,79.01
2018-11-26T04:28:21.754Z,79.95
2018-11-26T04:30:49.191Z,79.25
2018-11-26T04:33:16.626Z,80.07
2018-11-26T04:35:44.050Z,79.68
2018-11-26T04:38:11.478Z,80.20
2018-11-26T04:40:38.909Z,80.46
2018-11-26T04:43:06.329Z,79.89
2018-11-26T04:45:33.785Z,80.21
2018-11-26T04:48:01.218Z,80.62
2018-11-26T04:50:28.659Z,80.49
2018-11-26T04:52:56.095Z,80.79
2018-11-26T04:55:24.286Z,80.97
2018-11-26T04:57:51.735Z,81.27
2018-11-26T05:00:19.157Z,81.32
2018-11-26T05:02:46.585Z,81.30
2018-11-26T05:05:14.214Z,81.90
2018-11-26T05:07:41.676Z,81.86
2018-11-26T05:10:09.114Z,81.95
2018-11-26T05:12:36.641Z,81.70
2018-11-26T05:15:04.069Z,81.90
2018-11-26T05:17:31.494Z,82.74
2018-11-26T05:19:58.926Z,82.12
2018-11-26T05:22:26.362Z,82.88
2018-11-26T05:24:53.826Z,82.68
2018-11-26T05:27:21.254Z,82.69
2018-11-26T05:29:48.737Z,82.82
2018-11-26T05:32:16.209Z,83.30
2018-11-26T05:34:43.634Z,82.57
2018-11-26T05:37:11.116Z,82.66
2018-11-26T05:39:38.578Z,82.48
2018-11-26T05:42:05.998Z,82.71
2018-11-26T05:44:33.498Z,82.63
2018-11-26T05:47:00.918Z,83.65
2018-11-26T05:49:28.346Z,83.16
2018-11-26T05:51:55.774Z,83.97
2018-11-26T05:54:23.197Z,84.06
2018-11-26T05:56:50.680Z,83.60
2018-11-26T05:59:18.101Z,84.10
2018-11-26T06:01:45.590Z,84.21
2018-11-26T06:04:13.045Z,84.71
2018-11-26T06:06:40.502Z,84.95
2018-11-26T06:09:07.944Z,84.14
2018-11-26T06:11:35.417Z,84.33
2018-11-26T06:14:02.843Z,84.06
2018-11-26T06:16:30.334Z,84.80
2018-11-26T06:18:57.799Z,84.43
2018-11-26T06:21:25.227Z,84.32
2018-11-26T06:23:52.806Z,84.88
2018-11-26T06:26:20.258Z,84.40
2018-11-26T06:28:47.678Z,84.57
2018-11-26T06:31:15.187Z,85.14
2018-11-26T06:33:42.682Z,84.22
2018-11-26T06:36:10.107Z,84.66
2018-11-26T06:38:37.538Z,84.89
2018-11-26T06:41:05.009Z,85.02
2018-11-26T06:43:32.442Z,85.09
2018-11-26T06:45:59.875Z,84.44
2018-11-26T06:48:27.381Z,84.98
2018-11-26T06:50:54.810Z,84.73
2018-11-26T06:53:22.303Z,85.33
2018-11-26T06:55:49.738Z,84.95
2018-11-26T06:58:17.217Z,85.25
2018-11-26T07:00:44.643Z,84.99
2018-11-26T07:03:12.077Z,84.75
2018-11-26T07:05:39.492Z,85.34
2018-11-26T07:08:06.928Z,85.07
2018-11-26T07:10:34.349Z,84.48
2018-11-26T07:13:01.770Z,84.30
2018-11-26T07:15:29.190Z,84.56
2018-11-26T07:17:56.617Z,84.56
2018-11-26T07:20:24.503Z,84.27
2018-11-26T07:22:51.930Z,84.68
2018-11-26T07:25:20.966Z,84.37
2018-11-26T07:27:48.390Z,84.23
2018-11-26T07:30:15.805Z,84.18
2018-11-26T07:32:43.257Z,83.54
2018-11-26T07:35:10.955Z,83.77
2018-11-26T07:37:38.389Z,84.11
2018-11-26T07:40:05.854Z,84.85
2018-11-26T07:42:33.282Z,84.10
2018-11-26T07:45:00.701Z,84.09
2018-11-26T07:47:28.153Z,83.84
2018-11-26T07:49:55.581Z,84.36
2018-11-26T07:52:23.007Z,84.29
2018-11-26T07:54:50.425Z,85.00
2018-11-26T07:57:17.938Z,85.08
2018-11-26T07:59:45.393Z,84.08
2018-11-26T08:02:12.824Z,84.37
2018-11-26T08:04:40.305Z,83.93
2018-11-26T08:07:07.770Z,83.49
2018-11-26T08:09:35.206Z,83.48
2018-11-26T08:12:02.629Z,83.96
2018-11-26T08:14:30.053Z,84.33
2018-11-26T08:16:57.506Z,84.06
2018-11-26T08:19:24.954Z,84.04
2018-11-26T08:21:52.414Z,84.88
2018-11-26T08:24:19.838Z,83.84
2018-11-26T08:26:47.619Z,82.99
2018-11-26T08:29:15.046Z,83.08
2018-11-26T08:31:42.474Z,83.23
2018-11-26T08:34:09.901Z,83.12
2018-11-26T08:36:43.470Z,82.34
2018-11-26T08:39:15.094Z,83.26
2018-11-26T08:41:48.022Z,83.16
2018-11-26T08:44:19.642Z,82.67
2018-11-26T08:46:47.069Z,82.60
2018-11-26T08:49:18.677Z,82.82
2018-11-26T08:51:46.511Z,81.65
2018-11-26T08:54:14.037Z,81.54
2018-11-26T08:56:41.493Z,81.35
2018-11-26T08:59:10.015Z,81.23
2018-11-26T09:01:42.491Z,81.01
2018-11-26T09:04:11.101Z,80.79
2018-11-26T09:06:38.530Z,79.99
2018-11-26T09:09:06.063Z,79.27
2018-11-26T09:11:33.483Z,79.39
2018-11-26T09:14:00.913Z,79.61
2018-11-26T09:16:28.343Z,80.60
2018-11-26T09:18:55.770Z,79.95
2018-11-26T09:21:23.200Z,80.11
2018-11-26T09:23:50.634Z,81.29
2018-11-26T09:26:18.514Z,81.47
2018-11-26T09:28:45.934Z,82.37
2018-11-26T09:31:13.355Z,82.11
2018-11-26T09:33:40.836Z,82.21
2018-11-26T09:36:08.245Z,82.44
2018-11-26T09:38:35.756Z,82.15
2018-11-26T09:41:03.193Z,82.00
2018-11-26T09:43:30.662Z,81.48
2018-11-26T09:45:58.120Z,81.77
2018-11-26T09:48:25.545Z,81.36
2018-11-26T09:50:52.961Z,82.22
2018-11-26T09:53:20.400Z,81.87
2018-11-26T09:55:47.832Z,81.24
2018-11-26T09:58:15.265Z,81.03
2018-11-26T10:00:42.684Z,80.64
2018-11-26T10:03:10.213Z,80.75
2018-11-26T10:05:38.007Z,79.85
2018-11-26T10:08:05.453Z,80.14
2018-11-26T10:10:33.555Z,80.12
2018-11-26T10:13:00.976Z,79.15
2018-11-26T10:15:28.393Z,79.66
2018-11-26T10:17:55.812Z,78.27
2018-11-26T10:20:23.242Z,78.92
2018-11-26T10:22:50.674Z,79.22
2018-11-26T10:25:18.165Z,78.61
2018-11-26T10:27:45.621Z,78.96
2018-11-26T10:30:13.177Z,78.73
2018-11-26T10:32:40.610Z,77.90
2018-11-26T10:35:08.051Z,77.88
2018-11-26T10:37:35.567Z,77.26
2018-11-26T10:40:02.989Z,77.79
2018-11-26T10:42:30.419Z,77.28
2018-11-26T10:44:57.922Z,78.27
2018-11-26T10:47:25.426Z,77.75
2018-11-26T10:49:52.871Z,77.97
2018-11-26T10:52:20.303Z,77.91
2018-11-26T10:54:48.157Z,77.59
2018-11-26T10:57:15.163Z,77.26
2018-11-26T10:59:42.596Z,77.01
2018-11-26T11:02:15.540Z,76.71
2018-11-26T11:04:47.588Z,77.48
2018-11-26T11:07:10.527Z,77.16
2018-11-26T11:09:38.011Z,77.05
2018-11-26T11:12:05.371Z,76.90
2018-11-26T11:14:32.846Z,76.94
2018-11-26T11:17:00.277Z,76.55
2018-11-26T11:19:27.699Z,76.37
2018-11-26T11:21:55.122Z,75.30
2018-11-26T11:24:22.610Z,75.83
2018-11-26T11:26:50.036Z,75.50
2018-11-26T11:29:17.464Z,75.33
2018-11-26T11:31:45.335Z,75.56
2018-11-26T11:34:12.765Z,75.60
2018-11-26T11:36:40.828Z,74.93
2018-11-26T11:39:08.348Z,75.61
2018-11-26T11:41:35.762Z,75.44
2018-11-26T11:44:03.196Z,74.38
2018-11-26T11:46:30.715Z,74.88
2018-11-26T11:48:58.176Z,75.16
2018-11-26T11:51:25.604Z,74.63
2018-11-26T11:53:53.107Z,74.99
2018-11-26T11:56:20.551Z,74.30
2018-11-26T11:58:47.989Z,74.23
2018-11-26T12:01:15.412Z,74.37
2018-11-26T12:03:42.922Z,73.87
2018-11-26T12:06:11.358Z,73.66
2018-11-26T12:08:38.468Z,73.82
2018-11-26T12:11:05.915Z,73.68
2018-11-26T12:13:33.340Z,73.81
2018-11-26T12:16:00.792Z,73.19
2018-11-26T12:18:28.224Z,73.89
2018-11-26T12:20:55.659Z,74.02
2018-11-26T12:23:23.097Z,73.19
2018-11-26T12:25:50.560Z,73.62
2018-11-26T12:28:17.980Z,73.14
2018-11-26T12:30:45.412Z,73.07
2018-11-26T12:33:12.839Z,73.22
2018-11-26T12:35:40.258Z,72.76
2018-11-26T12:38:07.744Z,73.94
2018-11-26T12:40:35.172Z,73.73
2018-11-26T12:43:02.608Z,73.74
2018-11-26T12:45:30.420Z,73.21
2018-11-26T12:47:58.055Z,73.65
2018-11-26T12:50:25.491Z,73.72
2018-11-26T12:52:52.911Z,73.76
2018-11-26T12:55:20.348Z,73.66
2018-11-26T12:57:47.810Z,74.39
2018-11-26T13:00:15.274Z,73.88
2018-11-26T13:02:42.705Z,73.74
2018-11-26T13:05:10.118Z,74.25
2018-11-26T13:07:37.554Z,73.53
2018-11-26T13:10:04.997Z,74.11
2018-11-26T13:12:32.436Z,74.03
2018-11-26T13:15:00.696Z,74.07
2018-11-26T13:17:27.311Z,74.56
2018-11-26T13:19:54.831Z,73.96
2018-11-26T13:22:22.258Z,73.53
2018-11-26T13:24:49.700Z,73.76
2018-11-26T13:27:17.124Z,73.51
2018-11-26T13:29:44.660Z,73.31
2018-11-26T13:32:12.086Z,73.54
2018-11-26T13:34:39.825Z,73.88
2018-11-26T13:37:07.415Z,73.35
2018-11-26T13:39:34.839Z,73.06
2018-11-26T13:42:02.271Z,73.77
2018-11-26T13:44:30.204Z,72.88
2018-11-26T13:46:57.632Z,73.44
2018-11-26T13:49:25.729Z,73.70
2018-11-26T13:51:53.204Z,73.63
2018-11-26T13:54:20.628Z,73.51
2018-11-26T13:56:48.060Z,73.84
2018-11-26T13:59:15.552Z,74.05
2018-11-26T14:01:43.024Z,75.03
2018-11-26T14:04:10.501Z,75.27
2018-11-26T14:06:37.927Z,75.92
2018-11-26T14:09:05.947Z,74.92
2018-11-26T14:11:33.388Z,73.34
2018-11-26T14:14:01.390Z,74.03
2018-11-26T14:16:28.815Z,73.85
2018-11-26T14:18:56.267Z,73.33
2018-11-26T14:21:23.724Z,73.31
2018-11-26T14:23:51.248Z,73.09
2018-11-26T14:26:18.746Z,72.89
2018-11-26T14:28:46.177Z,73.04
2018-11-26T14:31:13.615Z,72.76
2018-11-26T14:33:41.058Z,73.14
2018-11-26T14:36:08.487Z,73.03
2018-11-26T14:38:36.230Z,72.21
2018-11-26T14:41:03.691Z,71.98
2018-11-26T14:43:31.181Z,72.19
2018-11-26T14:45:58.572Z,72.10
2018-11-26T14:48:26.018Z,72.03
2018-11-26T14:50:53.444Z,71.20
2018-11-26T14:53:20.871Z,71.10
2018-11-26T14:55:48.340Z,70.80
2018-11-26T14:58:15.765Z,71.18
2018-11-26T15:00:43.251Z,71.13
2018-11-26T15:03:10.677Z,70.74
2018-11-26T15:05:38.112Z,70.92
2018-11-26T15:08:06.302Z,71.56
2018-11-26T15:10:33.804Z,71.53
2018-11-26T15:13:01.226Z,71.14
2018-11-26T15:15:28.714Z,70.91
2018-11-26T15:17:56.237Z,71.15
2018-11-26T15:20:24.243Z,71.92
2018-11-26T15:22:51.704Z,71.18
2018-11-26T15:25:19.155Z,71.39
2018-11-26T15:27:46.586Z,71.17
2018-11-26T15:30:14.027Z,71.47
2018-11-26T15:32:41.463Z,72.13
2018-11-26T15:35:09.391Z,72.36
2018-11-26T15:37:36.821Z,71.52
2018-11-26T15:40:04.320Z,71.51
2018-11-26T15:42:31.759Z,71.43
2018-11-26T15:44:59.230Z,72.13
2018-11-26T15:47:26.678Z,72.70
2018-11-26T15:49:54.738Z,72.30
2018-11-26T15:52:22.160Z,72.45
2018-11-26T15:54:49.614Z,72.27
2018-11-26T15:57:17.056Z,72.27
2018-11-26T15:59:44.583Z,72.18
2018-11-26T16:02:12.006Z,72.11
2018-11-26T16:04:39.431Z,72.75
2018-11-26T16:07:07.047Z,71.11
2018-11-26T16:09:34.520Z,71.19
2018-11-26T16:12:01.980Z,71.78
2018-11-26T16:14:29.401Z,70.01
2018-11-26T16:16:56.833Z,69.45
2018-11-26T16:19:24.256Z,69.32
2018-11-26T16:21:51.698Z,68.29
2018-11-26T16:24:19.198Z,68.53
2018-11-26T16:26:46.704Z,68.15
2018-11-26T16:29:14.182Z,67.41
2018-11-26T16:31:41.635Z,68.00
2018-11-26T16:34:09.076Z,68.74
2018-11-26T16:36:36.503Z,69.44
2018-11-26T16:39:05.915Z,68.84
2018-11-26T16:41:33.535Z,69.25
2018-11-26T16:44:01.272Z,68.46
2018-11-26T16:46:28.699Z,67.42
2018-11-26T16:48:56.111Z,68.08
2018-11-26T16:51:23.652Z,68.59
2018-11-26T16:53:51.080Z,68.54
2018-11-26T16:56:18.518Z,68.47
2018-11-26T16:58:46.023Z,67.61
2018-11-26T17:01:13.487Z,67.69
2018-11-26T17:03:40.944Z,67.49
2018-11-26T17:06:08.371Z,67.66
2018-11-26T17:08:35.799Z,67.66
2018-11-26T17:11:03.224Z,67.69
2018-11-26T17:13:30.660Z,66.96
2018-11-26T17:15:58.132Z,67.39
2018-11-26T17:18:25.591Z,67.88
2018-11-26T17:20:53.036Z,68.28
2018-11-26T17:23:20.475Z,68.26
2018-11-26T17:25:47.912Z,68.25
2018-11-26T17:28:15.356Z,68.30
2018-11-26T17:30:42.787Z,68.25
2018-11-26T17:33:10.216Z,68.82
2018-11-26T17:35:37.645Z,68.59
2018-11-26T17:38:05.144Z,68.17
2018-11-26T17:40:32.608Z,68.30
2018-11-26T17:43:01.782Z,67.66
2018-11-26T17:45:29.177Z,68.10
2018-11-26T17:47:56.626Z,68.22
2018-11-26T17:50:24.052Z,68.54
2018-11-26T17:52:51.526Z,67.97
2018-11-26T17:55:18.989Z,68.93
2018-11-26T17:57:46.421Z,68.37
2018-11-26T18:00:13.868Z,69.05
2018-11-26T18:02:41.304Z,68.35
2018-11-26T18:05:08.727Z,69.06
2018-11-26T18:07:36.172Z,69.05
2018-11-26T18:10:03.597Z,69.59
2018-11-26T18:12:31.035Z,68.94
2018-11-26T18:14:58.545Z,69.75
2018-11-26T18:17:25.976Z,69.72
2018-11-26T18:19:53.464Z,69.44
2018-11-26T18:22:20.924Z,69.89
2018-11-26T18:24:48.375Z,69.42
2018-11-26T18:27:15.803Z,69.79
2018-11-26T18:29:43.989Z,68.92
2018-11-26T18:32:11.399Z,69.30
2018-11-26T18:34:38.920Z,69.18
2018-11-26T18:37:06.363Z,69.21
2018-11-26T18:39:33.807Z,68.92
2018-11-26T18:42:01.299Z,69.21
2018-11-26T18:44:28.756Z,69.90
2018-11-26T18:46:56.184Z,70.07
2018-11-26T18:49:23.677Z,70.31
2018-11-26T18:51:51.209Z,69.84
2018-11-26T18:54:18.678Z,69.83
2018-11-26T18:56:46.141Z,69.66
2018-11-26T18:59:13.595Z,70.18
2018-11-26T19:01:41.028Z,70.56
2018-11-26T19:04:08.469Z,70.66
2018-11-26T19:06:35.892Z,70.07
2018-11-26T19:09:03.351Z,69.95
2018-11-26T19:11:30.795Z,70.16
2018-11-26T19:13:58.245Z,69.66
2018-11-26T19:16:25.689Z,69.45
2018-11-26T19:18:53.128Z,69.40
2018-11-26T19:21:20.560Z,69.88
2018-11-26T19:23:47.991Z,70.12
2018-11-26T19:26:17.599Z,70.26
2018-11-26T19:28:45.024Z,69.83
2018-11-26T19:31:12.463Z,69.64
2018-11-26T19:33:39.954Z,69.67
2018-11-26T19:36:07.374Z,69.68
2018-11-26T19:38:34.809Z,70.06
2018-11-26T19:41:02.848Z,70.31
2018-11-26T19:43:30.288Z,69.58
2018-11-26T19:45:57.737Z,70.15
2018-11-26T19:48:25.172Z,69.59
2018-11-26T19:50:52.673Z,69.59
2018-11-26T19:53:20.108Z,69.17
2018-11-26T19:55:47.547Z,69.68
2018-11-26T19:58:14.979Z,69.49
2018-11-26T20:00:42.415Z,70.79
2018-11-26T20:03:09.960Z,71.33
2018-11-26T20:05:37.405Z,71.31
2018-11-26T20:08:04.838Z,72.53
2018-11-26T20:10:32.268Z,72.24
2018-11-26T20:12:59.713Z,71.93
2018-11-26T20:15:27.144Z,71.41
2018-11-26T20:17:59.068Z,71.38
2018-11-26T20:20:22.016Z,71.13
2018-11-26T20:22:49.475Z,71.38
2018-11-26T20:25:16.906Z,71.09
2018-11-26T20:27:44.708Z,71.16
2018-11-26T20:30:12.327Z,72.22
2018-11-26T20:32:39.751Z,72.07
2018-11-26T20:35:07.183Z,72.28
2018-11-26T20:37:34.672Z,72.15
2018-11-26T20:40:02.131Z,72.09
2018-11-26T20:42:29.554Z,72.46
2018-11-26T20:44:56.996Z,73.56
2018-11-26T20:47:24.430Z,72.69
2018-11-26T20:49:51.864Z,73.25
2018-11-26T20:52:19.305Z,73.63
2018-11-26T20:54:46.745Z,73.83
2018-11-26T20:57:14.172Z,73.46
2018-11-26T20:59:41.608Z,73.69
2018-11-26T21:02:09.037Z,74.00
2018-11-26T21:04:36.495Z,73.68
2018-11-26T21:07:03.935Z,73.55
2018-11-26T21:09:31.392Z,73.17
2018-11-26T21:11:58.800Z,72.85
2018-11-26T21:14:26.329Z,73.08
2018-11-26T21:16:53.792Z,73.50
2018-11-26T21:19:21.226Z,73.23
2018-11-26T21:21:48.653Z,72.45
2018-11-26T21:24:16.084Z,72.33
2018-11-26T21:26:43.620Z,72.71
2018-11-26T21:29:11.080Z,72.27
2018-11-26T21:31:38.507Z,72.46
2018-11-26T21:34:05.940Z,72.89
2018-11-26T21:36:33.452Z,72.84
2018-11-26T21:39:00.880Z,72.19
2018-11-26T21:41:28.302Z,72.24
2018-11-26T21:43:55.836Z,72.81
2018-11-26T21:46:23.256Z,73.27
2018-11-26T21:48:50.691Z,73.32
2018-11-26T21:51:18.195Z,73.49
2018-11-26T21:53:45.618Z,73.99
2018-11-26T21:56:13.620Z,73.52
2018-11-26T21:58:41.081Z,73.83
2018-11-26T22:01:08.504Z,73.85
2018-11-26T22:03:35.955Z,73.76
2018-11-26T22:06:03.400Z,73.56
2018-11-26T22:08:30.829Z,74.33
2018-11-26T22:10:58.260Z,74.36
2018-11-26T22:13:26.063Z,74.31
2018-11-26T22:15:53.503Z,74.17
2018-11-26T22:18:20.933Z,73.92
2018-11-26T22:20:48.398Z,74.83
2018-11-26T22:23:15.840Z,74.60
2018-11-26T22:25:43.272Z,74.07
2018-11-26T22:28:10.709Z,74.74
2018-11-26T22:30:38.159Z,75.55
2018-11-26T22:33:05.582Z,74.47
2018-11-26T22:35:33.005Z,74.21
2018-11-26T22:38:00.435Z,74.08
2018-11-26T22:40:27.887Z,74.43
2018-11-26T22:42:55.507Z,74.42
2018-11-26T22:45:23.247Z,74.25
2018-11-26T22:47:50.681Z,74.48
2018-11-26T22:50:18.100Z,74.62
2018-11-26T22:52:45.532Z,74.70
2018-11-26T22:55:12.974Z,74.99
2018-11-26T22:57:40.415Z,75.27
2018-11-26T23:00:07.852Z,75.58
2018-11-26T23:02:35.291Z,75.09
2018-11-26T23:05:02.722Z,75.02
2018-11-26T23:07:30.151Z,75.34
2018-11-26T23:09:57.647Z,75.84
2018-11-26T23:12:25.084Z,75.61
2018-11-26T23:14:52.568Z,75.56
2018-11-26T23:17:19.995Z,76.45
2018-11-26T23:19:47.422Z,75.49
2018-11-26T23:22:14.939Z,74.93
2018-11-26T23:24:42.399Z,74.79
2018-11-26T23:27:09.832Z,74.25
2018-11-26T23:29:37.398Z,73.90
2018-11-26T23:32:04.810Z,73.77
2018-11-26T23:34:32.344Z,73.23
2018-11-26T23:36:59.772Z,73.14
2018-11-26T23:39:27.417Z,73.00
2018-11-26T23:41:54.708Z,72.99
2018-11-26T23:44:22.141Z,73.58
2018-11-26T23:46:49.577Z,72.58
2018-11-26T23:49:17.021Z,72.23
2018-11-26T23:51:44.444Z,72.29
2018-11-26T23:54:11.880Z,72.50
2018-11-26T23:56:39.357Z,71.59
2018-11-26T23:59:06.784Z,72.14
